Paganini — V2CL8 — position and weather

sailwx.info

Track history (hours):
 
Tides and Currents Weather Stations Pressure Air Temp Water Temp Dewpoint Dewpoint Depression Visibility Wind Speed Wind Dir Waves Ship Positions

Paganini

Last reported at 2018-Jul-16 05:33 UTC. Time now 2018-Jul-20 10:52 UTC.
Position N 48°04' W 006°29'.

Length 90 m; draft 5.6 m.

Type: Cargo ship. MMSI: 305040000.

Date/timePositionNaut miles runAvg speedWind from/ knotsBaromVisibWave heightAir tempDewpointWater temp
2018-Jul-16 05:33N 48°04' W 006°29'6 8.4
2018-Jul-16 04:48N 48°09' W 006°25'7 8.2
2018-Jul-16 03:58N 48°15' W 006°20'8 8.0
2018-Jul-16 02:58N 48°22' W 006°14'5 9.2
2018-Jul-16 02:29N 48°26' W 006°11'5 9.5
2018-Jul-16 01:58N 48°31' W 006°08'5 9.8
2018-Jul-16 01:29N 48°35' W 006°04'510.6
2018-Jul-16 01:00N 48°39' W 006°01'511.0
2018-Jul-16 00:30N 48°44' W 005°57'611.0
2018-Jul-15 23:58N 48°49' W 005°53'511.5
2018-Jul-15 23:31N 48°54' W 005°48'611.1
2018-Jul-15 23:00N 48°57' W 005°41'510.8
2018-Jul-15 22:30N 48°60' W 005°34'510.3
2018-Jul-15 22:00N 49°03' W 005°28'12 9.4
2018-Jul-15 20:41N 49°09' W 005°11'2 8.6
2018-Jul-15 20:30N 49°10' W 005°09'45 8.7
2018-Jul-15 15:21N 49°32' W 004°10'410.5
2018-Jul-15 15:00N 49°34' W 004°05'511.0
2018-Jul-15 14:30N 49°37' W 003°58'611.4
2018-Jul-15 14:00N 49°40' W 003°50'611.4
2018-Jul-15 13:30N 49°43' W 003°43'611.2
2018-Jul-15 13:00N 49°45' W 003°35'510.9
2018-Jul-15 12:30N 49°49' W 003°28'510.1
2018-Jul-15 12:00N 49°51' W 003°21'5 9.6
2018-Jul-15 11:30N 49°53' W 003°15'4 8.7
2018-Jul-15 11:00N 49°55' W 003°09'4 8.1
2018-Jul-15 10:30N 49°57' W 003°03'4 7.7
2018-Jul-15 10:00N 49°59' W 002°58'4 7.3
2018-Jul-15 09:30N 50°01' W 002°53'5 7.2
2018-Jul-15 08:51N 50°02' W 002°46'2 7.2
2018-Jul-15 08:30N 50°03' W 002°42'4 7.2
2018-Jul-15 07:54N 50°04' W 002°36'4 7.6
2018-Jul-15 07:24N 50°05' W 002°30'3 8.1
2018-Jul-15 06:59N 50°06' W 002°25'12 9.4
2018-Jul-15 05:40N 50°09' W 002°07'411.0
2018-Jul-15 05:19N 50°10' W 002°01'511.9
2018-Jul-15 04:52N 50°12' W 001°53'612.5
2018-Jul-15 04:22N 50°13' W 001°43'612.9
2018-Jul-15 03:53N 50°15' W 001°34'613.1
2018-Jul-15 03:24N 50°17' W 001°24'613.2
2018-Jul-15 02:58N 50°18' W 001°16'1613.1
2018-Jul-15 01:45N 50°23' W 000°52'411.2
2018-Jul-15 01:23N 50°24' W 000°46'410.2
2018-Jul-15 01:00N 50°25' W 000°40'5 9.5
2018-Jul-15 00:28N 50°26' W 000°32'4 9.0
2018-Jul-15 00:00N 50°27' W 000°26'4 8.5
2018-Jul-14 23:30N 50°29' W 000°19'4 7.9
2018-Jul-14 23:00N 50°30' W 000°13'4 7.5
2018-Jul-14 22:30N 50°31' W 000°08'3 7.0
2018-Jul-14 22:01N 50°32' W 000°02'3 6.8
2018-Jul-14 21:30N 50°33' E 000°03'3 6.9
2018-Jul-14 21:00N 50°33' E 000°08'4 7.6
2018-Jul-14 20:30N 50°35' E 000°14'4 8.4
2018-Jul-14 20:00N 50°36' E 000°20'5 9.2
2018-Jul-14 19:30N 50°37' E 000°27'510.1
2018-Jul-14 19:00N 50°39' E 000°34'510.9
2018-Jul-14 18:30N 50°42' E 000°42'611.2
2018-Jul-14 18:00N 50°45' E 000°49'611.1
2018-Jul-14 17:30N 50°48' E 000°56'510.9
2018-Jul-14 17:00N 50°51' E 001°03'510.3
2018-Jul-14 16:30N 50°55' E 001°09'5 9.7
2018-Jul-14 16:00N 50°58' E 001°15'5 8.9
2018-Jul-14 15:30N 51°01' E 001°21'4 8.1
2018-Jul-14 15:00N 51°03' E 001°26'4 7.4
2018-Jul-14 14:30N 51°06' E 001°30'6 6.2
2018-Jul-14 13:30N 51°10' E 001°38'3 6.5
2018-Jul-14 13:00N 51°12' E 001°42'3 6.9
2018-Jul-14 12:30N 51°14' E 001°46'4 8.1
2018-Jul-14 12:00N 51°18' E 001°48'5 9.0
2018-Jul-14 11:30N 51°22' E 001°51'5 9.9
2018-Jul-14 11:00N 51°26' E 001°55'510.9
2018-Jul-14 10:30N 51°31' E 002°00'611.9
2018-Jul-14 09:59N 51°35' E 002°07'611.6
2018-Jul-14 09:30N 51°39' E 002°13'611.9
2018-Jul-14 09:00N 51°44' E 002°20'611.8
2018-Jul-14 08:30N 51°48' E 002°26'611.6
2018-Jul-14 08:00N 51°52' E 002°32'611.2
2018-Jul-14 07:26N 51°57' E 002°39'16 9.9
2018-Jul-14 05:50N 52°09' E 002°56'4 9.0
2018-Jul-14 05:23N 52°12' E 003°01'3 8.7
2018-Jul-14 04:59N 52°15' E 003°05'5 8.4
2018-Jul-14 04:25N 52°19' E 003°09'4 8.1
2018-Jul-14 03:59N 52°22' E 003°12'4 8.0
2018-Jul-14 03:30N 52°25' E 003°16'4 7.8
2018-Jul-14 03:00N 52°28' E 003°20'4 7.7
2018-Jul-14 02:29N 52°31' E 003°23'12 8.3
2018-Jul-14 01:06N 52°40' E 003°35'1 9.3
2018-Jul-14 01:00N 52°41' E 003°36'6 9.7
2018-Jul-14 00:23N 52°46' E 003°42'143 8.3
2018-Jul-13 07:12N 53°57' E 007°10'1 6.5
2018-Jul-13 06:59N 53°57' E 007°12'4 6.7
2018-Jul-13 06:24N 53°58' E 007°18'4 7.1
2018-Jul-13 05:52N 53°59' E 007°24'3 7.6
2018-Jul-13 05:30N 53°60' E 007°29'8 7.9
2018-Jul-13 04:31N 54°01' E 007°42'1 8.3
2018-Jul-13 04:25N 54°01' E 007°44'4 8.6
2018-Jul-13 03:57N 54°01' E 007°50'4 8.8
2018-Jul-13 03:29N 54°01' E 007°57'5 9.2
2018-Jul-13 02:56N 54°01' E 008°06'4 8.6
2018-Jul-13 02:30N 54°00' E 008°12'510.7
2018-Jul-13 02:00N 53°60' E 008°21'612.6
2018-Jul-13 01:30N 53°58' E 008°32'510.9
2018-Jul-13 01:00N 53°56' E 008°40'5 9.8
2018-Jul-13 00:31N 53°52' E 008°44'4 8.3
2018-Jul-13 00:00N 53°50' E 008°51'4 7.8
2018-Jul-12 23:30N 53°51' E 008°57'4 7.7
2018-Jul-12 23:00N 53°52' E 009°04'4 7.3
2018-Jul-12 22:30N 53°53' E 009°10'3 5.9
2018-Jul-12 22:00N 53°53' E 009°15'4 7.1
2018-Jul-12 21:30N 53°51' E 009°20'4 8.2
2018-Jul-12 21:00N 53°47' E 009°23'510.0
2018-Jul-12 20:30N 53°43' E 009°28'611.1
2018-Jul-12 20:00N 53°38' E 009°32'611.3
2018-Jul-12 19:30N 53°34' E 009°39'611.4
2018-Jul-12 19:00N 53°33' E 009°49'5 9.0
2018-Jul-12 18:30N 53°32' E 009°56'3 6.4
2018-Jul-12 18:00N 53°29' E 009°58'1 1.5
2018-Jul-12 17:29N 53°29' E 009°58'0 0.0
2018-Jul-12 16:59N 53°29' E 009°58'0 0.0
2018-Jul-12 16:29N 53°29' E 009°58'0 0.0
2018-Jul-12 15:59N 53°29' E 009°58'0 0.0
2018-Jul-12 15:29N 53°29' E 009°58'0 0.0
2018-Jul-12 14:59N 53°29' E 009°58'0 0.0
2018-Jul-12 14:29N 53°29' E 009°58'0 0.0
2018-Jul-12 13:59N 53°29' E 009°58'0 0.0
2018-Jul-12 13:29N 53°29' E 009°58'0 0.0
2018-Jul-12 12:59N 53°29' E 009°58'0 0.0
2018-Jul-12 12:29N 53°29' E 009°58'0 0.0
2018-Jul-12 11:59N 53°29' E 009°58'0 0.0
2018-Jul-12 11:29N 53°29' E 009°58'0 0.0
2018-Jul-12 10:59N 53°29' E 009°58'0 0.0
2018-Jul-12 10:29N 53°29' E 009°58'0 0.0
2018-Jul-12 09:59N 53°29' E 009°58'0 0.0
2018-Jul-12 09:29N 53°29' E 009°58'0 0.0
2018-Jul-12 08:59N 53°29' E 009°58'0 0.0
2018-Jul-12 08:29N 53°29' E 009°58'0 0.0
2018-Jul-12 07:59N 53°29' E 009°58'0 0.0
2018-Jul-12 07:29N 53°29' E 009°58'0 0.0
2018-Jul-12 06:59N 53°29' E 009°58'0 0.0
2018-Jul-12 06:29N 53°29' E 009°58'0 0.0
2018-Jul-12 05:59N 53°29' E 009°58'0 0.0
2018-Jul-12 05:29N 53°29' E 009°58'0 0.0
2018-Jul-12 04:59N 53°29' E 009°58'0 0.0
2018-Jul-12 04:29N 53°29' E 009°58'0 0.0
2018-Jul-12 04:00N 53°29' E 009°58'1 2.6
2018-Jul-12 03:30N 53°30' E 009°57'2 4.9
2018-Jul-12 03:00N 53°32' E 009°56'3 6.4
2018-Jul-12 02:30N 53°33' E 009°51'5 9.2
2018-Jul-12 02:00N 53°34' E 009°43'510.1
2018-Jul-12 01:30N 53°36' E 009°36'510.5
2018-Jul-12 01:01N 53°40' E 009°31'510.5
2018-Jul-12 00:30N 53°44' E 009°25'510.6
2018-Jul-12 00:00N 53°49' E 009°22'510.7
2018-Jul-11 23:30N 53°53' E 009°14'510.3
2018-Jul-11 23:00N 53°52' E 009°06'510.7
2018-Jul-11 22:30N 53°51' E 008°57'510.6
2018-Jul-11 22:00N 53°50' E 008°48'510.0
2018-Jul-11 21:30N 53°54' E 008°42'510.5
2018-Jul-11 21:01N 53°57' E 008°36'610.9
2018-Jul-11 20:30N 53°59' E 008°27'610.9
2018-Jul-11 20:00N 53°59' E 008°17'611.7
2018-Jul-11 19:30N 53°59' E 008°08'3 6.5
2018-Jul-11 19:00N 54°02' E 008°07'1 1.1
2018-Jul-11 18:29N 54°02' E 008°08'0 0.0
2018-Jul-11 17:59N 54°02' E 008°08'0 0.0
2018-Jul-11 17:23N 54°02' E 008°08'0 0.0
2018-Jul-11 16:59N 54°02' E 008°08'0 0.1
2018-Jul-11 16:29N 54°02' E 008°08'0 0.1
2018-Jul-11 15:56N 54°02' E 008°08'0 0.1
2018-Jul-11 15:29N 54°02' E 008°08'0 0.0
2018-Jul-11 14:59N 54°02' E 008°08'0 0.1
2018-Jul-11 14:26N 54°03' E 008°08'0 0.0
2018-Jul-11 13:59N 54°03' E 008°08'0 0.0
2018-Jul-11 13:26N 54°03' E 008°08'0 0.0
2018-Jul-11 12:53N 54°03' E 008°08'0 0.0
2018-Jul-11 12:29N 54°03' E 008°08'0 0.0
2018-Jul-11 11:56N 54°02' E 008°08'0 0.0
2018-Jul-11 11:17N 54°02' E 008°08'0 0.1
2018-Jul-11 10:59N 54°02' E 008°08'0 0.0
2018-Jul-11 10:29N 54°02' E 008°08'0 0.0
2018-Jul-11 09:53N 54°02' E 008°08'0 0.0
2018-Jul-11 09:17N 54°02' E 008°08'0 0.0
2018-Jul-11 08:59N 54°02' E 008°08'0 0.0
2018-Jul-11 08:17N 54°02' E 008°08'0 0.0
2018-Jul-11 07:59N 54°02' E 008°08'0 0.0
2018-Jul-11 07:26N 54°02' E 008°08'0 0.0
2018-Jul-11 06:56N 54°02' E 008°08'0 0.0
2018-Jul-11 06:26N 54°02' E 008°08'0 0.0
2018-Jul-11 05:44N 54°02' E 008°08'0 0.1
2018-Jul-11 05:29N 54°02' E 008°08'0 0.0
2018-Jul-11 04:44N 54°02' E 008°08'0 0.1
2018-Jul-11 04:26N 54°02' E 008°08'0 0.1
2018-Jul-11 03:56N 54°02' E 008°08'0 0.1
2018-Jul-11 03:26N 54°03' E 008°08'0 0.0
2018-Jul-11 02:44N 54°03' E 008°08'0 0.0
2018-Jul-11 02:20N 54°03' E 008°08'0 0.0
2018-Jul-11 01:50N 54°03' E 008°08'0 0.0
2018-Jul-11 01:29N 54°03' E 008°08'0 0.0
2018-Jul-11 00:56N 54°03' E 008°08'0 0.0
2018-Jul-11 00:11N 54°03' E 008°08'0 0.0
2018-Jul-10 23:50N 54°03' E 008°08'0 0.0
2018-Jul-10 23:29N 54°03' E 008°08'0 0.0
2018-Jul-10 22:56N 54°03' E 008°08'0 0.0
2018-Jul-10 22:29N 54°02' E 008°08'0 0.0
2018-Jul-10 21:56N 54°02' E 008°08'0 0.0
2018-Jul-10 21:14N 54°02' E 008°08'0 0.8
2018-Jul-10 21:00N 54°03' E 008°07'4 7.9
2018-Jul-10 20:30N 54°01' E 008°01'4 8.6
2018-Jul-10 19:59N 53°58' E 007°55'6 9.9
2018-Jul-10 19:26N 53°57' E 007°46'87 8.9
2018-Jul-10 09:43N 53°33' E 005°25'2 7.2
2018-Jul-10 09:28N 53°33' E 005°22'3 7.3
2018-Jul-10 08:59N 53°32' E 005°17'4 7.2
2018-Jul-10 08:29N 53°31' E 005°11'3 6.9
2018-Jul-10 08:00N 53°29' E 005°05'3 6.9
2018-Jul-10 07:30N 53°28' E 005°00'4 6.7
2018-Jul-10 06:59N 53°27' E 004°55'3 6.9
2018-Jul-10 06:30N 53°25' E 004°50'4 7.0
2018-Jul-10 06:00N 53°24' E 004°44'3 5.4
2018-Jul-10 05:30N 53°22' E 004°42'3 5.4
2018-Jul-10 05:00N 53°19' E 004°40'3 5.6
2018-Jul-10 04:30N 53°17' E 004°38'3 6.5
2018-Jul-10 04:01N 53°14' E 004°35'3 6.7
2018-Jul-10 03:30N 53°11' E 004°32'4 6.9
2018-Jul-10 03:00N 53°08' E 004°29'4 7.6
2018-Jul-10 02:28N 53°04' E 004°26'4 7.7
2018-Jul-10 01:57N 53°01' E 004°23'5 8.0
2018-Jul-10 01:20N 52°57' E 004°19'18 8.4
2018-Jul-09 23:14N 52°41' E 004°04'2 8.8
2018-Jul-09 22:58N 52°39' E 004°02'4 8.7
2018-Jul-09 22:29N 52°36' E 003°59'4 8.4
2018-Jul-09 22:00N 52°32' E 003°55'4 8.9
2018-Jul-09 21:30N 52°28' E 003°54'4 8.4
2018-Jul-09 21:00N 52°24' E 003°52'4 8.4
2018-Jul-09 20:30N 52°19' E 003°51'4 8.4
2018-Jul-09 20:00N 52°15' E 003°52'4 8.4
2018-Jul-09 19:30N 52°11' E 003°54'4 8.4
2018-Jul-09 19:00N 52°07' E 003°55'4 7.9
2018-Jul-09 18:30N 52°03' E 003°54'4 7.3
2018-Jul-09 18:00N 52°01' E 003°59'510.8
2018-Jul-09 17:30N 51°58' E 004°06'2 4.3
2018-Jul-09 16:59N 51°57' E 004°09'0 0.0
2018-Jul-09 16:29N 51°57' E 004°09'0 0.0
2018-Jul-09 15:59N 51°57' E 004°09'0 0.0
2018-Jul-09 15:29N 51°57' E 004°09'0 0.0
2018-Jul-09 14:59N 51°57' E 004°09'0 0.0
2018-Jul-09 14:29N 51°57' E 004°09'0 0.0
2018-Jul-09 13:59N 51°57' E 004°09'0 0.0
2018-Jul-09 13:29N 51°57' E 004°09'0 0.0
2018-Jul-09 12:59N 51°57' E 004°09'0 0.0
2018-Jul-09 12:29N 51°57' E 004°09'0 0.0
2018-Jul-09 11:59N 51°57' E 004°09'0 0.0
2018-Jul-09 11:29N 51°57' E 004°09'0 0.0
2018-Jul-09 10:59N 51°57' E 004°09'0 0.0
2018-Jul-09 10:29N 51°57' E 004°09'0 0.0
2018-Jul-09 09:59N 51°57' E 004°09'0 0.0
2018-Jul-09 09:29N 51°57' E 004°09'0 0.0
2018-Jul-09 08:59N 51°57' E 004°09'0 0.0
2018-Jul-09 08:29N 51°57' E 004°09'0 0.0
2018-Jul-09 07:59N 51°57' E 004°09'0 0.0
2018-Jul-09 07:29N 51°57' E 004°09'0 0.0
2018-Jul-09 06:59N 51°57' E 004°09'0 0.0
2018-Jul-09 06:29N 51°57' E 004°09'0 0.0
2018-Jul-09 05:59N 51°57' E 004°09'0 0.0
2018-Jul-09 05:29N 51°57' E 004°09'0 0.0
2018-Jul-09 04:59N 51°57' E 004°09'0 0.0
2018-Jul-09 04:29N 51°57' E 004°09'0 0.0
2018-Jul-09 03:59N 51°57' E 004°09'0 0.0
2018-Jul-09 03:29N 51°57' E 004°09'0 0.0
2018-Jul-09 02:59N 51°57' E 004°09'0 0.0
2018-Jul-09 02:29N 51°57' E 004°09'0 0.0
2018-Jul-09 01:59N 51°57' E 004°09'0 0.0
2018-Jul-09 01:29N 51°57' E 004°09'0 0.0
2018-Jul-09 00:59N 51°57' E 004°09'0 0.0
2018-Jul-09 00:29N 51°57' E 004°09'0 0.0
2018-Jul-08 23:59N 51°57' E 004°09'0 0.0
2018-Jul-08 23:29N 51°57' E 004°09'0 0.0
2018-Jul-08 22:59N 51°57' E 004°09'0 0.0
2018-Jul-08 22:29N 51°57' E 004°09'0 0.0
2018-Jul-08 21:53N 51°57' E 004°09'0 0.0
2018-Jul-08 21:29N 51°57' E 004°09'0 0.0
2018-Jul-08 20:59N 51°57' E 004°09'0 0.0
2018-Jul-08 20:29N 51°57' E 004°09'0 0.0
2018-Jul-08 19:59N 51°57' E 004°09'0 0.0
2018-Jul-08 19:29N 51°57' E 004°09'0 0.0
2018-Jul-08 18:59N 51°57' E 004°09'0 0.0
2018-Jul-08 18:26N 51°57' E 004°09'0 0.0
2018-Jul-08 17:56N 51°57' E 004°09'0 0.0
2018-Jul-08 17:29N 51°57' E 004°09'0 0.0
2018-Jul-08 16:59N 51°57' E 004°09'0 0.0
2018-Jul-08 16:29N 51°57' E 004°09'0 0.0
2018-Jul-08 15:59N 51°57' E 004°09'0 0.0
2018-Jul-08 15:29N 51°57' E 004°09'0 0.0
2018-Jul-08 14:59N 51°57' E 004°09'0 0.0
2018-Jul-08 14:29N 51°57' E 004°09'0 0.0
2018-Jul-08 13:59N 51°57' E 004°09'0 0.0
2018-Jul-08 13:29N 51°57' E 004°09'0 0.0
2018-Jul-08 12:59N 51°57' E 004°09'0 0.0
2018-Jul-08 12:26N 51°57' E 004°09'0 0.0
2018-Jul-08 11:59N 51°57' E 004°09'0 0.0
2018-Jul-08 11:29N 51°57' E 004°09'0 0.0
2018-Jul-08 10:59N 51°57' E 004°09'0 0.0
2018-Jul-08 10:26N 51°57' E 004°09'0 0.0
2018-Jul-08 09:59N 51°57' E 004°09'0 0.0
2018-Jul-08 09:29N 51°57' E 004°09'0 0.0
2018-Jul-08 08:59N 51°57' E 004°09'0 0.0
2018-Jul-08 08:29N 51°57' E 004°09'0 0.0
2018-Jul-08 07:59N 51°57' E 004°09'0 0.0
2018-Jul-08 07:29N 51°57' E 004°09'0 0.0
2018-Jul-08 06:59N 51°57' E 004°09'0 0.0
2018-Jul-08 06:29N 51°57' E 004°09'0 0.0
2018-Jul-08 05:56N 51°57' E 004°09'0 0.0
2018-Jul-08 05:29N 51°57' E 004°09'0 0.0
2018-Jul-08 04:59N 51°57' E 004°09'0 0.0
2018-Jul-08 04:29N 51°57' E 004°09'0 0.0
2018-Jul-08 03:59N 51°57' E 004°09'0 0.0
2018-Jul-08 03:29N 51°57' E 004°09'0 0.0
2018-Jul-08 02:59N 51°57' E 004°09'0 0.0
2018-Jul-08 02:29N 51°57' E 004°09'0 0.0
2018-Jul-08 01:59N 51°57' E 004°09'0 0.0
2018-Jul-08 01:29N 51°57' E 004°09'0 0.0
2018-Jul-08 00:59N 51°57' E 004°09'0 0.0
2018-Jul-08 00:29N 51°57' E 004°09'0 0.0
2018-Jul-07 23:59N 51°57' E 004°09'0 0.0
2018-Jul-07 23:29N 51°57' E 004°09'0 0.0
2018-Jul-07 22:59N 51°57' E 004°09'0 0.0
2018-Jul-07 22:29N 51°57' E 004°09'0 0.0
2018-Jul-07 21:59N 51°57' E 004°09'0 0.0
2018-Jul-07 21:29N 51°57' E 004°09'0 0.0
2018-Jul-07 20:53N 51°57' E 004°09'0 0.0
2018-Jul-07 20:29N 51°57' E 004°09'0 0.0
2018-Jul-07 19:59N 51°57' E 004°09'0 0.0
2018-Jul-07 19:29N 51°57' E 004°09'0 0.0
2018-Jul-07 18:59N 51°57' E 004°09'0 0.0
2018-Jul-07 18:29N 51°57' E 004°09'0 0.0
2018-Jul-07 17:59N 51°57' E 004°09'0 0.0
2018-Jul-07 17:29N 51°57' E 004°09'0 0.0
2018-Jul-07 16:59N 51°57' E 004°09'0 0.0
2018-Jul-07 16:29N 51°57' E 004°09'0 0.0
2018-Jul-07 15:59N 51°57' E 004°09'0 0.0
2018-Jul-07 15:29N 51°57' E 004°09'0 0.0
2018-Jul-07 14:59N 51°57' E 004°09'0 0.0
2018-Jul-07 14:29N 51°57' E 004°09'0 0.0
2018-Jul-07 13:59N 51°57' E 004°09'0 0.0
2018-Jul-07 13:29N 51°57' E 004°09'0 0.0
2018-Jul-07 12:59N 51°57' E 004°09'0 0.0
2018-Jul-07 12:29N 51°57' E 004°09'0 0.0
2018-Jul-07 11:59N 51°57' E 004°09'0 0.0
2018-Jul-07 11:23N 51°57' E 004°09'0 0.0
2018-Jul-07 10:56N 51°57' E 004°09'0 0.0
2018-Jul-07 10:29N 51°57' E 004°09'0 0.0
2018-Jul-07 09:59N 51°57' E 004°09'0 0.0
2018-Jul-07 09:29N 51°57' E 004°09'0 0.0
2018-Jul-07 08:59N 51°57' E 004°09'0 0.0
2018-Jul-07 08:29N 51°57' E 004°09'0 0.0
2018-Jul-07 07:59N 51°57' E 004°09'0 0.0
2018-Jul-07 07:29N 51°57' E 004°09'0 0.0
2018-Jul-07 06:59N 51°57' E 004°09'0 0.0
2018-Jul-07 06:26N 51°57' E 004°09'0 0.0
2018-Jul-07 05:59N 51°57' E 004°09'0 0.0
2018-Jul-07 05:29N 51°57' E 004°09'0 0.0
2018-Jul-07 04:59N 51°57' E 004°09'0 0.0
2018-Jul-07 04:29N 51°57' E 004°09'0 0.0
2018-Jul-07 03:59N 51°57' E 004°09'0 0.0
2018-Jul-07 03:29N 51°57' E 004°09'0 0.0
2018-Jul-07 02:59N 51°57' E 004°09'0 0.0
2018-Jul-07 02:29N 51°57' E 004°09'0 0.0
2018-Jul-07 01:59N 51°57' E 004°09'0 0.0
2018-Jul-07 01:29N 51°57' E 004°09'0 0.0
2018-Jul-07 00:59N 51°57' E 004°09'0 0.0
2018-Jul-07 00:26N 51°57' E 004°09'0 0.0
2018-Jul-06 23:59N 51°57' E 004°09'0 0.0
2018-Jul-06 23:29N 51°57' E 004°09'0 0.0
2018-Jul-06 22:59N 51°57' E 004°09'0 0.0
2018-Jul-06 22:29N 51°57' E 004°09'0 0.0
2018-Jul-06 21:59N 51°57' E 004°09'0 0.0
2018-Jul-06 21:29N 51°57' E 004°09'0 0.0
2018-Jul-06 20:59N 51°57' E 004°09'0 0.0
2018-Jul-06 20:29N 51°57' E 004°09'0 0.0
2018-Jul-06 19:56N 51°57' E 004°09'0 0.0
2018-Jul-06 19:29N 51°57' E 004°09'0 0.0
2018-Jul-06 18:59N 51°57' E 004°09'0 0.0
2018-Jul-06 18:29N 51°57' E 004°09'0 0.0
2018-Jul-06 17:56N 51°57' E 004°09'0 0.0
2018-Jul-06 17:29N 51°57' E 004°09'0 0.0
2018-Jul-06 16:59N 51°57' E 004°09'0 0.0
2018-Jul-06 16:29N 51°57' E 004°09'0 0.0
2018-Jul-06 15:56N 51°57' E 004°09'0 0.0
2018-Jul-06 15:29N 51°57' E 004°09'0 0.0
2018-Jul-06 14:59N 51°57' E 004°09'0 0.0
2018-Jul-06 14:29N 51°57' E 004°09'0 0.0
2018-Jul-06 13:59N 51°57' E 004°09'0 0.0
2018-Jul-06 13:29N 51°57' E 004°09'0 0.0
2018-Jul-06 12:59N 51°57' E 004°09'0 0.0
2018-Jul-06 12:23N 51°57' E 004°09'0 0.0
2018-Jul-06 11:59N 51°57' E 004°09'0 0.0
2018-Jul-06 11:29N 51°57' E 004°09'0 0.0
2018-Jul-06 10:59N 51°57' E 004°09'0 0.0
2018-Jul-06 10:29N 51°57' E 004°09'0 0.0
2018-Jul-06 09:59N 51°57' E 004°09'0 0.0
2018-Jul-06 09:29N 51°57' E 004°09'0 0.0
2018-Jul-06 08:53N 51°57' E 004°09'0 0.0
2018-Jul-06 08:29N 51°57' E 004°09'0 0.0
2018-Jul-06 07:56N 51°57' E 004°09'0 0.0
2018-Jul-06 07:29N 51°57' E 004°09'0 0.0
2018-Jul-06 06:59N 51°57' E 004°09'0 0.0
2018-Jul-06 06:29N 51°57' E 004°09'0 0.0
2018-Jul-06 05:59N 51°57' E 004°09'  
Track history (hours):
 
Tides and Currents Weather Stations Pressure Air Temp Water Temp Dewpoint Dewpoint Depression Visibility Wind Speed Wind Dir Waves Ship Positions

Paganini

Last reported at 2018-Jul-16 05:33 UTC. Time now 2018-Jul-20 10:52 UTC.
Position N 48°04' W 006°29'.

Length 90 m; draft 5.6 m.

Type: Cargo ship. MMSI: 305040000.

Date/timePositionNaut miles runAvg speedWind from/ knotsBaromVisibWave heightAir tempDewpointWater temp
2018-Jul-16 05:33N 48°04' W 006°29'6 8.4
2018-Jul-16 04:48N 48°09' W 006°25'7 8.2
2018-Jul-16 03:58N 48°15' W 006°20'8 8.0
2018-Jul-16 02:58N 48°22' W 006°14'5 9.2
2018-Jul-16 02:29N 48°26' W 006°11'5 9.5
2018-Jul-16 01:58N 48°31' W 006°08'5 9.8
2018-Jul-16 01:29N 48°35' W 006°04'510.6
2018-Jul-16 01:00N 48°39' W 006°01'511.0
2018-Jul-16 00:30N 48°44' W 005°57'611.0
2018-Jul-15 23:58N 48°49' W 005°53'511.5
2018-Jul-15 23:31N 48°54' W 005°48'611.1
2018-Jul-15 23:00N 48°57' W 005°41'510.8
2018-Jul-15 22:30N 48°60' W 005°34'510.3
2018-Jul-15 22:00N 49°03' W 005°28'12 9.4
2018-Jul-15 20:41N 49°09' W 005°11'2 8.6
2018-Jul-15 20:30N 49°10' W 005°09'45 8.7
2018-Jul-15 15:21N 49°32' W 004°10'410.5
2018-Jul-15 15:00N 49°34' W 004°05'511.0
2018-Jul-15 14:30N 49°37' W 003°58'611.4
2018-Jul-15 14:00N 49°40' W 003°50'611.4
2018-Jul-15 13:30N 49°43' W 003°43'611.2
2018-Jul-15 13:00N 49°45' W 003°35'510.9
2018-Jul-15 12:30N 49°49' W 003°28'510.1
2018-Jul-15 12:00N 49°51' W 003°21'5 9.6
2018-Jul-15 11:30N 49°53' W 003°15'4 8.7
2018-Jul-15 11:00N 49°55' W 003°09'4 8.1
2018-Jul-15 10:30N 49°57' W 003°03'4 7.7
2018-Jul-15 10:00N 49°59' W 002°58'4 7.3
2018-Jul-15 09:30N 50°01' W 002°53'5 7.2
2018-Jul-15 08:51N 50°02' W 002°46'2 7.2
2018-Jul-15 08:30N 50°03' W 002°42'4 7.2
2018-Jul-15 07:54N 50°04' W 002°36'4 7.6
2018-Jul-15 07:24N 50°05' W 002°30'3 8.1
2018-Jul-15 06:59N 50°06' W 002°25'12 9.4
2018-Jul-15 05:40N 50°09' W 002°07'411.0
2018-Jul-15 05:19N 50°10' W 002°01'511.9
2018-Jul-15 04:52N 50°12' W 001°53'612.5
2018-Jul-15 04:22N 50°13' W 001°43'612.9
2018-Jul-15 03:53N 50°15' W 001°34'613.1
2018-Jul-15 03:24N 50°17' W 001°24'613.2
2018-Jul-15 02:58N 50°18' W 001°16'1613.1
2018-Jul-15 01:45N 50°23' W 000°52'411.2
2018-Jul-15 01:23N 50°24' W 000°46'410.2
2018-Jul-15 01:00N 50°25' W 000°40'5 9.5
2018-Jul-15 00:28N 50°26' W 000°32'4 9.0
2018-Jul-15 00:00N 50°27' W 000°26'4 8.5
2018-Jul-14 23:30N 50°29' W 000°19'4 7.9
2018-Jul-14 23:00N 50°30' W 000°13'4 7.5
2018-Jul-14 22:30N 50°31' W 000°08'3 7.0
2018-Jul-14 22:01N 50°32' W 000°02'3 6.8
2018-Jul-14 21:30N 50°33' E 000°03'3 6.9
2018-Jul-14 21:00N 50°33' E 000°08'4 7.6
2018-Jul-14 20:30N 50°35' E 000°14'4 8.4
2018-Jul-14 20:00N 50°36' E 000°20'5 9.2
2018-Jul-14 19:30N 50°37' E 000°27'510.1
2018-Jul-14 19:00N 50°39' E 000°34'510.9
2018-Jul-14 18:30N 50°42' E 000°42'611.2
2018-Jul-14 18:00N 50°45' E 000°49'611.1
2018-Jul-14 17:30N 50°48' E 000°56'510.9
2018-Jul-14 17:00N 50°51' E 001°03'510.3
2018-Jul-14 16:30N 50°55' E 001°09'5 9.7
2018-Jul-14 16:00N 50°58' E 001°15'5 8.9
2018-Jul-14 15:30N 51°01' E 001°21'4 8.1
2018-Jul-14 15:00N 51°03' E 001°26'4 7.4
2018-Jul-14 14:30N 51°06' E 001°30'6 6.2
2018-Jul-14 13:30N 51°10' E 001°38'3 6.5
2018-Jul-14 13:00N 51°12' E 001°42'3 6.9
2018-Jul-14 12:30N 51°14' E 001°46'4 8.1
2018-Jul-14 12:00N 51°18' E 001°48'5 9.0
2018-Jul-14 11:30N 51°22' E 001°51'5 9.9
2018-Jul-14 11:00N 51°26' E 001°55'510.9
2018-Jul-14 10:30N 51°31' E 002°00'611.9
2018-Jul-14 09:59N 51°35' E 002°07'611.6
2018-Jul-14 09:30N 51°39' E 002°13'611.9
2018-Jul-14 09:00N 51°44' E 002°20'611.8
2018-Jul-14 08:30N 51°48' E 002°26'611.6
2018-Jul-14 08:00N 51°52' E 002°32'611.2
2018-Jul-14 07:26N 51°57' E 002°39'16 9.9
2018-Jul-14 05:50N 52°09' E 002°56'4 9.0
2018-Jul-14 05:23N 52°12' E 003°01'3 8.7
2018-Jul-14 04:59N 52°15' E 003°05'5 8.4
2018-Jul-14 04:25N 52°19' E 003°09'4 8.1
2018-Jul-14 03:59N 52°22' E 003°12'4 8.0
2018-Jul-14 03:30N 52°25' E 003°16'4 7.8
2018-Jul-14 03:00N 52°28' E 003°20'4 7.7
2018-Jul-14 02:29N 52°31' E 003°23'12 8.3
2018-Jul-14 01:06N 52°40' E 003°35'1 9.3
2018-Jul-14 01:00N 52°41' E 003°36'6 9.7
2018-Jul-14 00:23N 52°46' E 003°42'143 8.3
2018-Jul-13 07:12N 53°57' E 007°10'1 6.5
2018-Jul-13 06:59N 53°57' E 007°12'4 6.7
2018-Jul-13 06:24N 53°58' E 007°18'4 7.1
2018-Jul-13 05:52N 53°59' E 007°24'3 7.6
2018-Jul-13 05:30N 53°60' E 007°29'8 7.9
2018-Jul-13 04:31N 54°01' E 007°42'1 8.3
2018-Jul-13 04:25N 54°01' E 007°44'4 8.6
2018-Jul-13 03:57N 54°01' E 007°50'4 8.8
2018-Jul-13 03:29N 54°01' E 007°57'5 9.2
2018-Jul-13 02:56N 54°01' E 008°06'4 8.6
2018-Jul-13 02:30N 54°00' E 008°12'510.7
2018-Jul-13 02:00N 53°60' E 008°21'612.6
2018-Jul-13 01:30N 53°58' E 008°32'510.9
2018-Jul-13 01:00N 53°56' E 008°40'5 9.8
2018-Jul-13 00:31N 53°52' E 008°44'4 8.3
2018-Jul-13 00:00N 53°50' E 008°51'4 7.8
2018-Jul-12 23:30N 53°51' E 008°57'4 7.7
2018-Jul-12 23:00N 53°52' E 009°04'4 7.3
2018-Jul-12 22:30N 53°53' E 009°10'3 5.9
2018-Jul-12 22:00N 53°53' E 009°15'4 7.1
2018-Jul-12 21:30N 53°51' E 009°20'4 8.2
2018-Jul-12 21:00N 53°47' E 009°23'510.0
2018-Jul-12 20:30N 53°43' E 009°28'611.1
2018-Jul-12 20:00N 53°38' E 009°32'611.3
2018-Jul-12 19:30N 53°34' E 009°39'611.4
2018-Jul-12 19:00N 53°33' E 009°49'5 9.0
2018-Jul-12 18:30N 53°32' E 009°56'3 6.4
2018-Jul-12 18:00N 53°29' E 009°58'1 1.5
2018-Jul-12 17:29N 53°29' E 009°58'0 0.0
2018-Jul-12 16:59N 53°29' E 009°58'0 0.0
2018-Jul-12 16:29N 53°29' E 009°58'0 0.0
2018-Jul-12 15:59N 53°29' E 009°58'0 0.0
2018-Jul-12 15:29N 53°29' E 009°58'0 0.0
2018-Jul-12 14:59N 53°29' E 009°58'0 0.0
2018-Jul-12 14:29N 53°29' E 009°58'0 0.0
2018-Jul-12 13:59N 53°29' E 009°58'0 0.0
2018-Jul-12 13:29N 53°29' E 009°58'0 0.0
2018-Jul-12 12:59N 53°29' E 009°58'0 0.0
2018-Jul-12 12:29N 53°29' E 009°58'0 0.0
2018-Jul-12 11:59N 53°29' E 009°58'0 0.0
2018-Jul-12 11:29N 53°29' E 009°58'0 0.0
2018-Jul-12 10:59N 53°29' E 009°58'0 0.0
2018-Jul-12 10:29N 53°29' E 009°58'0 0.0
2018-Jul-12 09:59N 53°29' E 009°58'0 0.0
2018-Jul-12 09:29N 53°29' E 009°58'0 0.0
2018-Jul-12 08:59N 53°29' E 009°58'0 0.0
2018-Jul-12 08:29N 53°29' E 009°58'0 0.0
2018-Jul-12 07:59N 53°29' E 009°58'0 0.0
2018-Jul-12 07:29N 53°29' E 009°58'0 0.0
2018-Jul-12 06:59N 53°29' E 009°58'0 0.0
2018-Jul-12 06:29N 53°29' E 009°58'0 0.0
2018-Jul-12 05:59N 53°29' E 009°58'0 0.0
2018-Jul-12 05:29N 53°29' E 009°58'0 0.0
2018-Jul-12 04:59N 53°29' E 009°58'0 0.0
2018-Jul-12 04:29N 53°29' E 009°58'0 0.0
2018-Jul-12 04:00N 53°29' E 009°58'1 2.6
2018-Jul-12 03:30N 53°30' E 009°57'2 4.9
2018-Jul-12 03:00N 53°32' E 009°56'3 6.4
2018-Jul-12 02:30N 53°33' E 009°51'5 9.2
2018-Jul-12 02:00N 53°34' E 009°43'510.1
2018-Jul-12 01:30N 53°36' E 009°36'510.5
2018-Jul-12 01:01N 53°40' E 009°31'510.5
2018-Jul-12 00:30N 53°44' E 009°25'510.6
2018-Jul-12 00:00N 53°49' E 009°22'510.7
2018-Jul-11 23:30N 53°53' E 009°14'510.3
2018-Jul-11 23:00N 53°52' E 009°06'510.7
2018-Jul-11 22:30N 53°51' E 008°57'510.6
2018-Jul-11 22:00N 53°50' E 008°48'510.0
2018-Jul-11 21:30N 53°54' E 008°42'510.5
2018-Jul-11 21:01N 53°57' E 008°36'610.9
2018-Jul-11 20:30N 53°59' E 008°27'610.9
2018-Jul-11 20:00N 53°59' E 008°17'611.7
2018-Jul-11 19:30N 53°59' E 008°08'3 6.5
2018-Jul-11 19:00N 54°02' E 008°07'1 1.1
2018-Jul-11 18:29N 54°02' E 008°08'0 0.0
2018-Jul-11 17:59N 54°02' E 008°08'0 0.0
2018-Jul-11 17:23N 54°02' E 008°08'0 0.0
2018-Jul-11 16:59N 54°02' E 008°08'0 0.1
2018-Jul-11 16:29N 54°02' E 008°08'0 0.1
2018-Jul-11 15:56N 54°02' E 008°08'0 0.1
2018-Jul-11 15:29N 54°02' E 008°08'0 0.0
2018-Jul-11 14:59N 54°02' E 008°08'0 0.1
2018-Jul-11 14:26N 54°03' E 008°08'0 0.0
2018-Jul-11 13:59N 54°03' E 008°08'0 0.0
2018-Jul-11 13:26N 54°03' E 008°08'0 0.0
2018-Jul-11 12:53N 54°03' E 008°08'0 0.0
2018-Jul-11 12:29N 54°03' E 008°08'0 0.0
2018-Jul-11 11:56N 54°02' E 008°08'0 0.0
2018-Jul-11 11:17N 54°02' E 008°08'0 0.1
2018-Jul-11 10:59N 54°02' E 008°08'0 0.0
2018-Jul-11 10:29N 54°02' E 008°08'0 0.0
2018-Jul-11 09:53N 54°02' E 008°08'0 0.0
2018-Jul-11 09:17N 54°02' E 008°08'0 0.0
2018-Jul-11 08:59N 54°02' E 008°08'0 0.0
2018-Jul-11 08:17N 54°02' E 008°08'0 0.0
2018-Jul-11 07:59N 54°02' E 008°08'0 0.0
2018-Jul-11 07:26N 54°02' E 008°08'0 0.0
2018-Jul-11 06:56N 54°02' E 008°08'0 0.0
2018-Jul-11 06:26N 54°02' E 008°08'0 0.0
2018-Jul-11 05:44N 54°02' E 008°08'0 0.1
2018-Jul-11 05:29N 54°02' E 008°08'0 0.0
2018-Jul-11 04:44N 54°02' E 008°08'0 0.1
2018-Jul-11 04:26N 54°02' E 008°08'0 0.1
2018-Jul-11 03:56N 54°02' E 008°08'0 0.1
2018-Jul-11 03:26N 54°03' E 008°08'0 0.0
2018-Jul-11 02:44N 54°03' E 008°08'0 0.0
2018-Jul-11 02:20N 54°03' E 008°08'0 0.0
2018-Jul-11 01:50N 54°03' E 008°08'0 0.0
2018-Jul-11 01:29N 54°03' E 008°08'0 0.0
2018-Jul-11 00:56N 54°03' E 008°08'0 0.0
2018-Jul-11 00:11N 54°03' E 008°08'0 0.0
2018-Jul-10 23:50N 54°03' E 008°08'0 0.0
2018-Jul-10 23:29N 54°03' E 008°08'0 0.0
2018-Jul-10 22:56N 54°03' E 008°08'0 0.0
2018-Jul-10 22:29N 54°02' E 008°08'0 0.0
2018-Jul-10 21:56N 54°02' E 008°08'0 0.0
2018-Jul-10 21:14N 54°02' E 008°08'0 0.8
2018-Jul-10 21:00N 54°03' E 008°07'4 7.9
2018-Jul-10 20:30N 54°01' E 008°01'4 8.6
2018-Jul-10 19:59N 53°58' E 007°55'6 9.9
2018-Jul-10 19:26N 53°57' E 007°46'87 8.9
2018-Jul-10 09:43N 53°33' E 005°25'2 7.2
2018-Jul-10 09:28N 53°33' E 005°22'3 7.3
2018-Jul-10 08:59N 53°32' E 005°17'4 7.2
2018-Jul-10 08:29N 53°31' E 005°11'3 6.9
2018-Jul-10 08:00N 53°29' E 005°05'3 6.9
2018-Jul-10 07:30N 53°28' E 005°00'4 6.7
2018-Jul-10 06:59N 53°27' E 004°55'3 6.9
2018-Jul-10 06:30N 53°25' E 004°50'4 7.0
2018-Jul-10 06:00N 53°24' E 004°44'3 5.4
2018-Jul-10 05:30N 53°22' E 004°42'3 5.4
2018-Jul-10 05:00N 53°19' E 004°40'3 5.6
2018-Jul-10 04:30N 53°17' E 004°38'3 6.5
2018-Jul-10 04:01N 53°14' E 004°35'3 6.7
2018-Jul-10 03:30N 53°11' E 004°32'4 6.9
2018-Jul-10 03:00N 53°08' E 004°29'4 7.6
2018-Jul-10 02:28N 53°04' E 004°26'4 7.7
2018-Jul-10 01:57N 53°01' E 004°23'5 8.0
2018-Jul-10 01:20N 52°57' E 004°19'18 8.4
2018-Jul-09 23:14N 52°41' E 004°04'2 8.8
2018-Jul-09 22:58N 52°39' E 004°02'4 8.7
2018-Jul-09 22:29N 52°36' E 003°59'4 8.4
2018-Jul-09 22:00N 52°32' E 003°55'4 8.9
2018-Jul-09 21:30N 52°28' E 003°54'4 8.4
2018-Jul-09 21:00N 52°24' E 003°52'4 8.4
2018-Jul-09 20:30N 52°19' E 003°51'4 8.4
2018-Jul-09 20:00N 52°15' E 003°52'4 8.4
2018-Jul-09 19:30N 52°11' E 003°54'4 8.4
2018-Jul-09 19:00N 52°07' E 003°55'4 7.9
2018-Jul-09 18:30N 52°03' E 003°54'4 7.3
2018-Jul-09 18:00N 52°01' E 003°59'510.8
2018-Jul-09 17:30N 51°58' E 004°06'2 4.3
2018-Jul-09 16:59N 51°57' E 004°09'0 0.0
2018-Jul-09 16:29N 51°57' E 004°09'0 0.0
2018-Jul-09 15:59N 51°57' E 004°09'0 0.0
2018-Jul-09 15:29N 51°57' E 004°09'0 0.0
2018-Jul-09 14:59N 51°57' E 004°09'0 0.0
2018-Jul-09 14:29N 51°57' E 004°09'0 0.0
2018-Jul-09 13:59N 51°57' E 004°09'0 0.0
2018-Jul-09 13:29N 51°57' E 004°09'0 0.0
2018-Jul-09 12:59N 51°57' E 004°09'0 0.0
2018-Jul-09 12:29N 51°57' E 004°09'0 0.0
2018-Jul-09 11:59N 51°57' E 004°09'0 0.0
2018-Jul-09 11:29N 51°57' E 004°09'0 0.0
2018-Jul-09 10:59N 51°57' E 004°09'0 0.0
2018-Jul-09 10:29N 51°57' E 004°09'0 0.0
2018-Jul-09 09:59N 51°57' E 004°09'0 0.0
2018-Jul-09 09:29N 51°57' E 004°09'0 0.0
2018-Jul-09 08:59N 51°57' E 004°09'0 0.0
2018-Jul-09 08:29N 51°57' E 004°09'0 0.0
2018-Jul-09 07:59N 51°57' E 004°09'0 0.0
2018-Jul-09 07:29N 51°57' E 004°09'0 0.0
2018-Jul-09 06:59N 51°57' E 004°09'0 0.0
2018-Jul-09 06:29N 51°57' E 004°09'0 0.0
2018-Jul-09 05:59N 51°57' E 004°09'0 0.0
2018-Jul-09 05:29N 51°57' E 004°09'0 0.0
2018-Jul-09 04:59N 51°57' E 004°09'0 0.0
2018-Jul-09 04:29N 51°57' E 004°09'0 0.0
2018-Jul-09 03:59N 51°57' E 004°09'0 0.0
2018-Jul-09 03:29N 51°57' E 004°09'0 0.0
2018-Jul-09 02:59N 51°57' E 004°09'0 0.0
2018-Jul-09 02:29N 51°57' E 004°09'0 0.0
2018-Jul-09 01:59N 51°57' E 004°09'0 0.0
2018-Jul-09 01:29N 51°57' E 004°09'0 0.0
2018-Jul-09 00:59N 51°57' E 004°09'0 0.0
2018-Jul-09 00:29N 51°57' E 004°09'0 0.0
2018-Jul-08 23:59N 51°57' E 004°09'0 0.0
2018-Jul-08 23:29N 51°57' E 004°09'0 0.0
2018-Jul-08 22:59N 51°57' E 004°09'0 0.0
2018-Jul-08 22:29N 51°57' E 004°09'0 0.0
2018-Jul-08 21:53N 51°57' E 004°09'0 0.0
2018-Jul-08 21:29N 51°57' E 004°09'0 0.0
2018-Jul-08 20:59N 51°57' E 004°09'0 0.0
2018-Jul-08 20:29N 51°57' E 004°09'0 0.0
2018-Jul-08 19:59N 51°57' E 004°09'0 0.0
2018-Jul-08 19:29N 51°57' E 004°09'0 0.0
2018-Jul-08 18:59N 51°57' E 004°09'0 0.0
2018-Jul-08 18:26N 51°57' E 004°09'0 0.0
2018-Jul-08 17:56N 51°57' E 004°09'0 0.0
2018-Jul-08 17:29N 51°57' E 004°09'0 0.0
2018-Jul-08 16:59N 51°57' E 004°09'0 0.0
2018-Jul-08 16:29N 51°57' E 004°09'0 0.0
2018-Jul-08 15:59N 51°57' E 004°09'0 0.0
2018-Jul-08 15:29N 51°57' E 004°09'0 0.0
2018-Jul-08 14:59N 51°57' E 004°09'0 0.0
2018-Jul-08 14:29N 51°57' E 004°09'0 0.0
2018-Jul-08 13:59N 51°57' E 004°09'0 0.0
2018-Jul-08 13:29N 51°57' E 004°09'0 0.0
2018-Jul-08 12:59N 51°57' E 004°09'0 0.0
2018-Jul-08 12:26N 51°57' E 004°09'0 0.0
2018-Jul-08 11:59N 51°57' E 004°09'0 0.0
2018-Jul-08 11:29N 51°57' E 004°09'0 0.0
2018-Jul-08 10:59N 51°57' E 004°09'0 0.0
2018-Jul-08 10:26N 51°57' E 004°09'0 0.0
2018-Jul-08 09:59N 51°57' E 004°09'0 0.0
2018-Jul-08 09:29N 51°57' E 004°09'0 0.0
2018-Jul-08 08:59N 51°57' E 004°09'0 0.0
2018-Jul-08 08:29N 51°57' E 004°09'0 0.0
2018-Jul-08 07:59N 51°57' E 004°09'0 0.0
2018-Jul-08 07:29N 51°57' E 004°09'0 0.0
2018-Jul-08 06:59N 51°57' E 004°09'0 0.0
2018-Jul-08 06:29N 51°57' E 004°09'0 0.0
2018-Jul-08 05:56N 51°57' E 004°09'0 0.0
2018-Jul-08 05:29N 51°57' E 004°09'0 0.0
2018-Jul-08 04:59N 51°57' E 004°09'0 0.0
2018-Jul-08 04:29N 51°57' E 004°09'0 0.0
2018-Jul-08 03:59N 51°57' E 004°09'0 0.0
2018-Jul-08 03:29N 51°57' E 004°09'0 0.0
2018-Jul-08 02:59N 51°57' E 004°09'0 0.0
2018-Jul-08 02:29N 51°57' E 004°09'0 0.0
2018-Jul-08 01:59N 51°57' E 004°09'0 0.0
2018-Jul-08 01:29N 51°57' E 004°09'0 0.0
2018-Jul-08 00:59N 51°57' E 004°09'0 0.0
2018-Jul-08 00:29N 51°57' E 004°09'0 0.0
2018-Jul-07 23:59N 51°57' E 004°09'0 0.0
2018-Jul-07 23:29N 51°57' E 004°09'0 0.0
2018-Jul-07 22:59N 51°57' E 004°09'0 0.0
2018-Jul-07 22:29N 51°57' E 004°09'0 0.0
2018-Jul-07 21:59N 51°57' E 004°09'0 0.0
2018-Jul-07 21:29N 51°57' E 004°09'0 0.0
2018-Jul-07 20:53N 51°57' E 004°09'0 0.0
2018-Jul-07 20:29N 51°57' E 004°09'0 0.0
2018-Jul-07 19:59N 51°57' E 004°09'0 0.0
2018-Jul-07 19:29N 51°57' E 004°09'0 0.0
2018-Jul-07 18:59N 51°57' E 004°09'0 0.0
2018-Jul-07 18:29N 51°57' E 004°09'0 0.0
2018-Jul-07 17:59N 51°57' E 004°09'0 0.0
2018-Jul-07 17:29N 51°57' E 004°09'0 0.0
2018-Jul-07 16:59N 51°57' E 004°09'0 0.0
2018-Jul-07 16:29N 51°57' E 004°09'0 0.0
2018-Jul-07 15:59N 51°57' E 004°09'0 0.0
2018-Jul-07 15:29N 51°57' E 004°09'0 0.0
2018-Jul-07 14:59N 51°57' E 004°09'0 0.0
2018-Jul-07 14:29N 51°57' E 004°09'0 0.0
2018-Jul-07 13:59N 51°57' E 004°09'0 0.0
2018-Jul-07 13:29N 51°57' E 004°09'0 0.0
2018-Jul-07 12:59N 51°57' E 004°09'0 0.0
2018-Jul-07 12:29N 51°57' E 004°09'0 0.0
2018-Jul-07 11:59N 51°57' E 004°09'0 0.0
2018-Jul-07 11:23N 51°57' E 004°09'0 0.0
2018-Jul-07 10:56N 51°57' E 004°09'0 0.0
2018-Jul-07 10:29N 51°57' E 004°09'0 0.0
2018-Jul-07 09:59N 51°57' E 004°09'0 0.0
2018-Jul-07 09:29N 51°57' E 004°09'0 0.0
2018-Jul-07 08:59N 51°57' E 004°09'0 0.0
2018-Jul-07 08:29N 51°57' E 004°09'0 0.0
2018-Jul-07 07:59N 51°57' E 004°09'0 0.0
2018-Jul-07 07:29N 51°57' E 004°09'0 0.0
2018-Jul-07 06:59N 51°57' E 004°09'0 0.0
2018-Jul-07 06:26N 51°57' E 004°09'0 0.0
2018-Jul-07 05:59N 51°57' E 004°09'0 0.0
2018-Jul-07 05:29N 51°57' E 004°09'0 0.0
2018-Jul-07 04:59N 51°57' E 004°09'0 0.0
2018-Jul-07 04:29N 51°57' E 004°09'0 0.0
2018-Jul-07 03:59N 51°57' E 004°09'0 0.0
2018-Jul-07 03:29N 51°57' E 004°09'0 0.0
2018-Jul-07 02:59N 51°57' E 004°09'0 0.0
2018-Jul-07 02:29N 51°57' E 004°09'0 0.0
2018-Jul-07 01:59N 51°57' E 004°09'0 0.0
2018-Jul-07 01:29N 51°57' E 004°09'0 0.0
2018-Jul-07 00:59N 51°57' E 004°09'0 0.0
2018-Jul-07 00:26N 51°57' E 004°09'0 0.0
2018-Jul-06 23:59N 51°57' E 004°09'0 0.0
2018-Jul-06 23:29N 51°57' E 004°09'0 0.0
2018-Jul-06 22:59N 51°57' E 004°09'0 0.0
2018-Jul-06 22:29N 51°57' E 004°09'0 0.0
2018-Jul-06 21:59N 51°57' E 004°09'0 0.0
2018-Jul-06 21:29N 51°57' E 004°09'0 0.0
2018-Jul-06 20:59N 51°57' E 004°09'0 0.0
2018-Jul-06 20:29N 51°57' E 004°09'0 0.0
2018-Jul-06 19:56N 51°57' E 004°09'0 0.0
2018-Jul-06 19:29N 51°57' E 004°09'0 0.0
2018-Jul-06 18:59N 51°57' E 004°09'0 0.0
2018-Jul-06 18:29N 51°57' E 004°09'0 0.0
2018-Jul-06 17:56N 51°57' E 004°09'0 0.0
2018-Jul-06 17:29N 51°57' E 004°09'0 0.0
2018-Jul-06 16:59N 51°57' E 004°09'0 0.0
2018-Jul-06 16:29N 51°57' E 004°09'0 0.0
2018-Jul-06 15:56N 51°57' E 004°09'0 0.0
2018-Jul-06 15:29N 51°57' E 004°09'0 0.0
2018-Jul-06 14:59N 51°57' E 004°09'0 0.0
2018-Jul-06 14:29N 51°57' E 004°09'0 0.0
2018-Jul-06 13:59N 51°57' E 004°09'0 0.0
2018-Jul-06 13:29N 51°57' E 004°09'0 0.0
2018-Jul-06 12:59N 51°57' E 004°09'0 0.0
2018-Jul-06 12:23N 51°57' E 004°09'0 0.0
2018-Jul-06 11:59N 51°57' E 004°09'0 0.0
2018-Jul-06 11:29N 51°57' E 004°09'0 0.0
2018-Jul-06 10:59N 51°57' E 004°09'0 0.0
2018-Jul-06 10:29N 51°57' E 004°09'0 0.0
2018-Jul-06 09:59N 51°57' E 004°09'0 0.0
2018-Jul-06 09:29N 51°57' E 004°09'0 0.0
2018-Jul-06 08:53N 51°57' E 004°09'0 0.0
2018-Jul-06 08:29N 51°57' E 004°09'0 0.0
2018-Jul-06 07:56N 51°57' E 004°09'0 0.0
2018-Jul-06 07:29N 51°57' E 004°09'0 0.0
2018-Jul-06 06:59N 51°57' E 004°09'0 0.0
2018-Jul-06 06:29N 51°57' E 004°09'0 0.0
2018-Jul-06 05:59N 51°57' E 004°09'  

Dump ship's entire track history